This is the latest recevied weather packets stored in our database for station/object VK3ANZ. If no packets are shown the sender has not sent any weather packets the latest 10 day(s).
| Time | Temp. | Humidity | Pressure | Rain* | Wind** | Luminosity | Snow |
|---|---|---|---|---|---|---|---|
| 1777518325 | 23.33° C | 11% | 1026.4 hPa | 0 mm | - | 264 W/m² | - |
| 1777517717 | 22.22° C | 12% | 1026.7 hPa | 0 mm | - | 234 W/m² | - |
| 1777512345 | 22.22° C | 14% | 1027.8 hPa | 0 mm | - | 235 W/m² | - |
| 1777509925 | 21.67° C | 18% | 1028.3 hPa | 0 mm | - | 315 W/m² | - |
| 1777503317 | 16.11° C | 31% | 1029 hPa | 0 mm | - | 250 W/m² | - |
| 1777502718 | 14.44° C | 33% | 1028.9 hPa | 0 mm | - | 229 W/m² | - |
| 1777502117 | 12.78° C | 44% | 1028.8 hPa | 0 mm | - | 209 W/m² | - |
| 1777497316 | 10° C | 69% | 1028.1 hPa | 0 mm | - | 9 W/m² | - |
| 1777494344 | 10.56° C | 57% | 1027.7 hPa | 0 mm | - | 0 W/m² | - |
| 1777493118 | 10.56° C | 53% | 1027.5 hPa | 0 mm | - | 0 W/m² | - |
| 1777490741 | 10.56° C | 50% | 1027.4 hPa | 0 mm | - | 0 W/m² | - |
| 1777483524 | 11.11° C | 53% | 1026.9 hPa | 0 mm | - | 0 W/m² | - |
| 1777482916 | 11.11° C | 53% | 1027 hPa | 0 mm | - | 0 W/m² | - |
| 1777479332 | 11.11° C | 50% | 1027.2 hPa | 0 mm | - | 0 W/m² | - |
| 1777476324 | 11.67° C | 48% | 1027.5 hPa | 0 mm | - | 0 W/m² | - |
| 1777475124 | 12.22° C | 47% | 1027.6 hPa | 0 mm | - | 0 W/m² | - |
| 1777471544 | 12.78° C | 43% | 1027.8 hPa | 0 mm | - | 0 W/m² | - |
| 1777466724 | 13.89° C | 40% | 1028.2 hPa | 0 mm | - | 0 W/m² | - |
| 1777463721 | 15° C | 36% | 1028.2 hPa | 0 mm | - | 0 W/m² | - |
| 1777458931 | 16.67° C | 33% | 1028 hPa | 0 mm | - | 0 W/m² | - |
| 1777457731 | 16.11° C | 33% | 1027.8 hPa | 0 mm | - | 0 W/m² | - |
| 1777457119 | 16.11° C | 33% | 1027.8 hPa | 0 mm | - | 0 W/m² | - |
| 1777448743 | 20.56° C | 24% | 1027.2 hPa | 0 mm | - | 0 W/m² | - |
| 1777446931 | 22.78° C | 18% | 1027 hPa | 0 mm | - | 8 W/m² | - |
| 1777443963 | 25° C | 10% | 1026.9 hPa | 0 mm | - | 34 W/m² | - |
* Rain latest hour (hover to see other rain measurements)
** Current wind speed in m/s (hover to see current wind gust speed)